Aviation Digital Data Service (ADDS)

Output produced by METARs form (1808 UTC 12 February 2016)
found at http://aviationweather.gov/adds/metars/
 
KFAY 121736Z 1218/1318 VRB05KT 4SM -FZRA BKN035 
     FM122100 02003KT 4SM BR OVC007 
     TEMPO 1221/1224 4SM -FZRA OVC007 
     FM130000 27003KT P6SM OVC015 
     FM131500 34017G25KT P6SM SKC